Impacts METAR Board
IDs:

KPHL - Philadelphia Intl, PA, US

Updated at: 2000 UTC 20 Sep 2018
Potential Impact None Slight Moderate High
Time 20/08Z 20/09Z 20/10Z 20/11Z 20/12Z 20/13Z 20/14Z 20/15Z 20/16Z 20/17Z 20/18Z 20/19Z 20/20Z
Temp69 68 68 67 67 68 70 70 73 73 74 75 74
Dewpt66 65 64 63 63 62 62 62 63 62 63 63 63
Altim30.08 30.09 30.11 30.15 30.17 30.20 30.22 30.23 30.23 30.23 30.21 30.20 30.19
VIS8 10 10 10 10 10 10 10 10 10 10 10 10
CIG20 30 15 18 20 21 35 21 25 28 55 50 30
CoverOVCBKNOVCOVCOVCOVCBKNOVCOVCOVCOVCOVCOVC
FltCatMVFRMVFRMVFRMVFRMVFRMVFRVFRMVFRMVFRMVFRVFRVFRMVFR
WX--------------------------
WDir0110120110110909011090100110120100
WSpd0 5 7 9 5 5 7 5 5 5 8 6 6
WGst-- -- -- -- -- -- -- -- -- -- -- -- --
Raw hourly METARs
KPHL 200754Z 00000KT 8SM SCT015 BKN020 OVC031 21/19 A3008 RMK AO2 SLP186 T02060189 $
KPHL 200854Z 11005KT 10SM SCT020 BKN030 BKN047 20/18 A3009 RMK AO2 SLP188 T02000183 53005 $
KPHL 200954Z 12007KT 10SM BKN015 BKN031 OVC045 20/18 A3011 RMK AO2 SLP196 T02000178 $
KPHL 201054Z 11009KT 10SM BKN018 OVC045 19/17 A3015 RMK AO2 SLP209 T01940172 $
KPHL 201154Z 11005KT 10SM SCT015 BKN020 OVC050 19/17 A3017 RMK AO2 SLP216 T01940172 10206 20194 51027 $
KPHL 201254Z 09005KT 10SM SCT015 BKN021 OVC035 20/17 A3020 RMK AO2 SLP225 T02000167
KPHL 201354Z 09007KT 10SM SCT015 BKN035 BKN050 21/17 A3022 RMK AO2 SLP232 T02110167
KPHL 201454Z 11005KT 10SM BKN021 OVC050 21/17 A3023 RMK AO2 SLP235 T02110167 51019
KPHL 201554Z 09005KT 10SM BKN025 OVC050 23/17 A3023 RMK AO2 SLP235 T02280172
KPHL 201654Z 10005KT 10SM BKN028 OVC055 23/17 A3023 RMK AO2 SLP234 T02280167
KPHL 201754Z 11008KT 10SM SCT035 BKN055 OVC100 23/17 A3021 RMK AO2 SLP229 T02330172 10239 20194 58006
KPHL 201854Z 12006KT 10SM SCT030 BKN050 OVC100 24/17 A3020 RMK AO2 SLP227 T02390172 $
KPHL 201954Z 10006KT 10SM BKN030 OVC036 23/17 A3019 RMK AO2 SLP223 T02330172 $



Page loaded:  20:23 UTC  |   01:23 PM Pacific  |   02:23 PM Mountain  |   03:23 PM Central  |   04:23 PM Eastern

 

ADVISORIES

FORECASTS

FORECASTS

OBSERVATIONS

USER TOOLS

ABOUT US